Springfield, OH (45501)

3:01 PM EDT on August 30, 2016 (GMT -0400)
Snyder Park | | Change Station

Elev 919 ft 39.93 °N, 83.85 °W | Updated 0 second ago

Clear
Clear
86.8 °F
Feels Like 90 °F
N
3.4
Wind Variable Wind from SW
Gusts 4.6 mph

Today
High -- | Low -- °F
--% Chance of Precip.
Yesterday
High -- | Low -- °F
Precip. -- in
Pressure 30.12 in
Visibility 10.0 miles
Clouds Clear
Heat Index 90 °F
Dew Point 68 °F
Humidity 53%
Rainfall 0.00 in
Snow Depth Not available.
7:01 AM 8:09 PM
Waning Crescent, 3% visible
METAR KSGH 301856Z AUTO VRB03KT 10SM CLR 29/18 A3015 RMK AO2 SLP200 T02890183
Pressure 30.12 in
Visibility 10.0 miles
Clouds Clear
Heat Index 90 °F
Dew Point 68 °F
Humidity 53%
Rainfall 0.00 in
Snow Depth Not available.
7:01 AM 8:09 PM
Waning Crescent, 3% visible
METAR KSGH 301856Z AUTO VRB03KT 10SM CLR 29/18 A3015 RMK AO2 SLP200 T02890183

10-Day Weather Forecast

Almanac

Astronomy

Aug. 30, 2016 Rise Set
Actual Time
Civil Twilight
Nautical Twilight
Astronomical Twilight
Moon
Length of Visible Light
Length of Day
Tomorrow will be .
, % of the Moon is Illuminated

Today's Extremes

State Highs State Lows

Community

WunderPhotos

Upload Photos

1,935,879 photos uploaded!

WunderBlog® & News

Nearby

Air Quality

  Air Quality AQ Index Pollutant
Not available.

Snow Depth

Station Depth Elevation

Earthquake Activity

City Distance Mag. Time & Date
Minimum magnitude displayed is 2.5.

Coastal Water Temperatures

Place Temperature

Stations

Nearby Weather Stations

Station Location Temp. Windchill Dew Point Humidity Wind Precip. Elev Updated Type
                   

Watches & Warnings

There are currently no watches in effect.